Terminal Aerodrome Forecast
Issued by NWS

Home | Current Version | Previous Version | Text Only | Print | Product List | Glossary On
Versions: 1 2 3 4 5 6 7 8 9 10 11 12 13 14 15 16 17 18 19 20
299
FTUS43 KDLH 252207 AAA
TAFHYR
TAF AMD
KHYR 252207Z 2522/2618 28008KT P6SM SCT035 OVC050
     FM260700 VRB02KT 6SM BR SCT045
      TEMPO 2608/2612 3/4SM BR SCT005
     FM261400 VRB04KT P6SM FEW025=

USA.gov is the U.S. government's official web portal to all federal, state and local government web resources and services.